createdAt,value
2018-10-09T00:02:10.535Z,80.30
2018-10-09T00:04:42.293Z,80.50
2018-10-09T00:07:14.281Z,81.00
2018-10-09T00:09:46.500Z,81.10
2018-10-09T00:12:18.224Z,82.10
2018-10-09T00:14:50.334Z,81.90
2018-10-09T00:17:22.537Z,81.90
2018-10-09T00:19:54.810Z,81.70
2018-10-09T00:22:26.963Z,81.50
2018-10-09T00:24:59.116Z,81.70
2018-10-09T00:27:30.709Z,82.00
2018-10-09T00:30:02.591Z,82.50
2018-10-09T00:32:34.567Z,82.20
2018-10-09T00:35:06.399Z,82.20
2018-10-09T00:37:38.093Z,82.10
2018-10-09T00:40:10.789Z,81.80
2018-10-09T00:42:42.843Z,82.40
2018-10-09T00:45:15.646Z,82.70
2018-10-09T00:47:47.448Z,83.10
2018-10-09T00:50:19.547Z,82.40
2018-10-09T00:52:51.634Z,82.70
2018-10-09T00:55:23.598Z,82.70
2018-10-09T00:57:55.208Z,83.30
2018-10-09T01:00:29.396Z,83.50
2018-10-09T01:03:01.215Z,82.90
2018-10-09T01:05:33.061Z,82.80
2018-10-09T01:08:04.793Z,83.30
2018-10-09T01:10:37.697Z,83.50
2018-10-09T01:13:09.685Z,83.90
2018-10-09T01:15:41.445Z,83.90
2018-10-09T01:18:14.143Z,83.50
2018-10-09T01:20:45.882Z,83.40
2018-10-09T01:23:17.770Z,83.30
2018-10-09T01:25:49.491Z,83.80
2018-10-09T01:28:22.095Z,84.10
2018-10-09T01:30:53.867Z,84.10
2018-10-09T01:33:25.555Z,83.90
2018-10-09T01:35:57.983Z,83.60
2018-10-09T01:38:29.809Z,83.60
2018-10-09T01:41:01.635Z,84.00
2018-10-09T01:43:33.524Z,84.20
2018-10-09T01:46:05.173Z,84.30
2018-10-09T01:48:37.342Z,84.70
2018-10-09T01:51:09.038Z,84.20
2018-10-09T01:53:41.049Z,83.90
2018-10-09T01:56:12.828Z,83.80
2018-10-09T01:58:44.660Z,84.20
2018-10-09T02:01:17.395Z,84.50
2018-10-09T02:03:49.205Z,84.60
2018-10-09T02:06:20.928Z,85.10
2018-10-09T02:08:52.927Z,85.50
2018-10-09T02:11:25.585Z,85.50
2018-10-09T02:13:57.291Z,85.80
2018-10-09T02:16:29.077Z,86.10
2018-10-09T02:19:00.802Z,85.90
2018-10-09T02:21:32.491Z,85.60
2018-10-09T02:24:04.542Z,85.20
2018-10-09T02:26:36.448Z,85.30
2018-10-09T02:29:09.143Z,85.30
2018-10-09T02:31:41.242Z,85.50
2018-10-09T02:34:12.909Z,86.00
2018-10-09T02:36:45.538Z,86.10
2018-10-09T02:39:17.487Z,85.00
2018-10-09T02:41:49.556Z,84.90
2018-10-09T02:44:22.367Z,85.30
2018-10-09T02:46:54.235Z,85.60
2018-10-09T02:49:26.759Z,85.60
2018-10-09T02:51:58.648Z,85.10
2018-10-09T02:54:30.323Z,86.10
2018-10-09T02:57:02.675Z,85.80
2018-10-09T02:59:34.376Z,86.60
2018-10-09T03:02:06.506Z,87.00
2018-10-09T03:04:38.393Z,87.00
2018-10-09T03:07:10.921Z,86.60
2018-10-09T03:09:43.694Z,86.30
2018-10-09T03:12:15.495Z,86.80
2018-10-09T03:14:47.959Z,87.10
2018-10-09T03:17:20.170Z,87.00
2018-10-09T03:19:52.461Z,87.00
2018-10-09T03:22:24.445Z,86.90
2018-10-09T03:24:56.555Z,86.50
2018-10-09T03:27:28.977Z,86.20
2018-10-09T03:30:00.946Z,86.40
2018-10-09T03:32:33.116Z,86.90
2018-10-09T03:35:05.111Z,87.10
2018-10-09T03:37:36.925Z,87.20
2018-10-09T03:40:08.821Z,87.40
2018-10-09T03:42:41.089Z,86.80
2018-10-09T03:45:12.868Z,87.00
2018-10-09T03:47:45.174Z,87.40
2018-10-09T03:50:16.935Z,87.20
2018-10-09T03:52:49.019Z,86.60
2018-10-09T03:55:21.257Z,86.40
2018-10-09T03:57:53.147Z,86.70
2018-10-09T04:00:25.604Z,87.10
2018-10-09T04:02:57.971Z,86.80
2018-10-09T04:05:29.859Z,86.30
2018-10-09T04:08:01.964Z,86.30
2018-10-09T04:10:33.793Z,85.90
2018-10-09T04:13:05.846Z,86.20
2018-10-09T04:15:38.123Z,87.10
2018-10-09T04:18:10.099Z,87.60
2018-10-09T04:20:42.018Z,87.10
2018-10-09T04:23:14.653Z,87.20
2018-10-09T04:25:46.520Z,87.40
2018-10-09T04:28:18.420Z,87.10
2018-10-09T04:30:50.714Z,87.40
2018-10-09T04:33:22.467Z,86.80
2018-10-09T04:35:54.393Z,88.20
2018-10-09T04:38:26.259Z,87.40
2018-10-09T04:40:57.976Z,87.10
2018-10-09T04:43:30.821Z,87.30
2018-10-09T04:46:03.135Z,87.80
2018-10-09T04:48:34.961Z,88.30
2018-10-09T04:51:07.181Z,87.50
2018-10-09T04:53:38.989Z,87.70
2018-10-09T04:56:10.628Z,87.70
2018-10-09T04:58:42.947Z,87.70
2018-10-09T05:01:16.574Z,87.60
2018-10-09T05:03:48.914Z,87.50
2018-10-09T05:06:20.805Z,87.20
2018-10-09T05:08:52.734Z,87.40
2018-10-09T05:11:24.940Z,87.10
2018-10-09T05:13:57.027Z,86.40
2018-10-09T05:16:29.918Z,86.70
2018-10-09T05:19:01.612Z,85.70
2018-10-09T05:21:33.594Z,85.10
2018-10-09T05:24:05.568Z,84.50
2018-10-09T05:26:37.622Z,84.70
2018-10-09T05:29:09.838Z,85.40
2018-10-09T05:31:42.352Z,85.70
2018-10-09T05:34:14.712Z,84.10
2018-10-09T05:36:46.719Z,84.30
2018-10-09T05:39:18.736Z,83.50
2018-10-09T05:41:50.915Z,83.50
2018-10-09T05:44:22.935Z,82.80
2018-10-09T05:46:54.920Z,82.40
2018-10-09T05:49:26.781Z,81.70
2018-10-09T05:51:59.305Z,81.80
2018-10-09T05:54:31.367Z,81.30
2018-10-09T05:57:03.748Z,80.60
2018-10-09T05:59:36.063Z,80.60
2018-10-09T06:02:09.328Z,79.50
2018-10-09T06:04:41.489Z,79.10
2018-10-09T06:07:14.784Z,77.50
2018-10-09T06:09:46.448Z,77.30
2018-10-09T06:12:18.625Z,76.20
2018-10-09T06:14:51.598Z,75.10
2018-10-09T06:17:23.257Z,73.40
2018-10-09T06:19:55.423Z,72.70
2018-10-09T06:22:27.493Z,71.80
2018-10-09T06:24:59.739Z,71.10
2018-10-09T06:27:31.924Z,70.80
2018-10-09T06:30:03.774Z,69.60
2018-10-09T06:32:36.206Z,68.10
2018-10-09T06:35:08.299Z,67.10
2018-10-09T06:37:40.171Z,65.70
2018-10-09T06:40:12.386Z,62.80
2018-10-09T06:42:44.401Z,61.50
2018-10-09T06:45:16.330Z,60.60
2018-10-09T06:47:48.433Z,60.50
2018-10-09T06:50:20.374Z,61.00
2018-10-09T06:52:52.608Z,60.30
2018-10-09T06:55:24.606Z,59.70
2018-10-09T06:57:57.043Z,58.10
2018-10-09T07:00:28.789Z,57.20
2018-10-09T07:03:00.934Z,56.00
2018-10-09T07:05:32.838Z,56.20
2018-10-09T07:08:05.153Z,55.10
2018-10-09T07:10:37.491Z,54.90
2018-10-09T07:13:09.588Z,54.80
2018-10-09T07:15:41.599Z,55.40
2018-10-09T07:18:13.657Z,55.00
2018-10-09T07:20:45.564Z,54.40
2018-10-09T07:23:18.408Z,53.50
2018-10-09T07:25:50.807Z,54.20
2018-10-09T07:28:22.756Z,54.20
2018-10-09T07:30:54.686Z,54.40
2018-10-09T07:33:27.511Z,53.20
2018-10-09T07:35:59.640Z,53.60
2018-10-09T07:38:31.506Z,53.10
2018-10-09T07:41:03.453Z,52.90
2018-10-09T07:43:35.556Z,53.00
2018-10-09T07:46:07.309Z,52.60
2018-10-09T07:48:39.214Z,52.80
2018-10-09T07:51:11.516Z,53.10
2018-10-09T07:53:43.305Z,52.90
2018-10-09T07:56:15.316Z,52.80
2018-10-09T07:58:47.460Z,53.40
2018-10-09T08:01:20.596Z,53.80
2018-10-09T08:03:53.442Z,53.00
2018-10-09T08:06:25.516Z,53.40
2018-10-09T08:08:58.269Z,52.70
2018-10-09T08:11:30.169Z,51.70
2018-10-09T08:14:02.062Z,52.40
2018-10-09T08:16:34.396Z,53.40
2018-10-09T08:19:06.909Z,52.40
2018-10-09T08:21:39.560Z,52.30
2018-10-09T08:24:11.546Z,52.70
2018-10-09T08:26:43.469Z,52.50
2018-10-09T08:29:15.808Z,51.60
2018-10-09T08:31:47.975Z,52.10
2018-10-09T08:34:19.729Z,51.50
2018-10-09T08:36:51.739Z,51.30
2018-10-09T08:39:23.647Z,51.00
2018-10-09T08:41:55.592Z,49.80
2018-10-09T08:44:27.463Z,49.50
2018-10-09T08:46:59.418Z,50.20
2018-10-09T08:49:32.166Z,49.80
2018-10-09T08:52:04.757Z,50.20
2018-10-09T08:54:36.744Z,49.70
2018-10-09T08:57:09.020Z,49.90
2018-10-09T08:59:41.952Z,49.20
2018-10-09T09:02:14.028Z,49.40
2018-10-09T09:04:46.429Z,49.60
2018-10-09T09:07:18.491Z,49.50
2018-10-09T09:09:50.783Z,49.70
2018-10-09T09:12:23.037Z,49.30
2018-10-09T09:14:54.866Z,49.20
2018-10-09T09:17:27.031Z,49.40
2018-10-09T09:19:59.175Z,48.50
2018-10-09T09:22:31.227Z,48.40
2018-10-09T09:25:02.937Z,47.60
2018-10-09T09:27:35.085Z,48.40
2018-10-09T09:30:07.747Z,46.80
2018-10-09T09:32:39.633Z,45.90
2018-10-09T09:35:12.374Z,45.70
2018-10-09T09:37:44.490Z,45.80
2018-10-09T09:40:16.463Z,46.50
2018-10-09T09:42:48.715Z,45.60
2018-10-09T09:45:20.661Z,46.40
2018-10-09T09:47:52.789Z,45.60
2018-10-09T09:50:24.759Z,45.30
2018-10-09T09:52:56.704Z,43.70
2018-10-09T09:55:28.792Z,43.00
2018-10-09T09:58:00.941Z,42.50
2018-10-09T10:00:38.076Z,43.00
2018-10-09T10:03:11.738Z,42.80
2018-10-09T10:05:43.763Z,42.50
2018-10-09T10:08:16.051Z,42.40
2018-10-09T10:10:47.982Z,42.50
2018-10-09T10:13:19.981Z,42.00
2018-10-09T10:15:52.352Z,42.10
2018-10-09T10:18:24.499Z,41.00
2018-10-09T10:20:56.805Z,40.80
2018-10-09T10:23:29.286Z,39.00
2018-10-09T10:26:01.372Z,41.50
2018-10-09T10:28:33.591Z,41.10
2018-10-09T10:31:05.705Z,41.50
2018-10-09T10:33:38.001Z,41.70
2018-10-09T10:36:10.130Z,42.00
2018-10-09T10:38:42.051Z,42.10
2018-10-09T10:41:14.063Z,41.10
2018-10-09T10:43:46.038Z,42.10
2018-10-09T10:46:18.683Z,42.30
2018-10-09T10:49:13.637Z,41.10
2018-10-09T10:51:46.584Z,41.70
2018-10-09T10:54:18.625Z,40.70
2018-10-09T10:56:50.545Z,40.90
2018-10-09T10:59:22.868Z,41.10
2018-10-09T11:01:54.900Z,40.80
2018-10-09T11:04:27.040Z,39.80
2018-10-09T11:06:58.823Z,40.80
2018-10-09T11:09:31.373Z,40.90
2018-10-09T11:12:03.436Z,40.70
2018-10-09T11:14:35.554Z,40.90
2018-10-09T11:17:07.739Z,40.90
2018-10-09T11:19:40.124Z,41.40
2018-10-09T11:22:12.236Z,41.40
2018-10-09T11:24:44.248Z,41.50
2018-10-09T11:27:16.346Z,40.90
2018-10-09T11:29:48.720Z,42.00
2018-10-09T11:32:21.083Z,40.50
2018-10-09T11:34:53.467Z,41.10
2018-10-09T11:37:26.089Z,40.90
2018-10-09T11:39:58.375Z,40.00
2018-10-09T11:42:31.255Z,40.40
2018-10-09T11:45:03.724Z,39.00
2018-10-09T11:47:35.915Z,38.20
2018-10-09T11:50:09.110Z,39.30
2018-10-09T11:52:40.682Z,39.50
2018-10-09T11:55:12.209Z,39.70
2018-10-09T11:57:44.384Z,39.40
2018-10-09T12:00:17.585Z,38.80
2018-10-09T12:02:49.483Z,38.00
2018-10-09T12:05:21.930Z,38.40
2018-10-09T12:07:54.233Z,38.80
2018-10-09T12:10:26.576Z,37.30
2018-10-09T12:12:58.703Z,36.60
2018-10-09T12:15:30.724Z,35.50
2018-10-09T12:18:02.926Z,35.80
2018-10-09T12:20:34.791Z,35.80
2018-10-09T12:23:07.877Z,34.40
2018-10-09T12:25:39.964Z,36.50
2018-10-09T12:28:12.284Z,36.70
2018-10-09T12:30:44.398Z,36.90
2018-10-09T12:33:16.668Z,36.20
2018-10-09T12:35:48.835Z,34.70
2018-10-09T12:38:20.821Z,34.40
2018-10-09T12:40:52.755Z,33.90
2018-10-09T12:43:24.963Z,36.30
2018-10-09T12:45:56.912Z,35.80
2018-10-09T12:48:28.952Z,34.90
2018-10-09T12:51:00.948Z,35.80
2018-10-09T12:53:34.453Z,36.90
2018-10-09T12:56:06.299Z,37.50
2018-10-09T12:58:38.803Z,37.40
2018-10-09T13:01:11.099Z,36.90
2018-10-09T13:03:43.295Z,36.50
2018-10-09T13:06:15.354Z,37.50
2018-10-09T13:08:47.706Z,37.50
2018-10-09T13:11:19.856Z,35.70
2018-10-09T13:13:52.206Z,38.00
2018-10-09T13:16:24.266Z,38.90
2018-10-09T13:18:56.201Z,37.80
2018-10-09T13:21:28.257Z,37.20
2018-10-09T13:24:01.356Z,36.40
2018-10-09T13:26:33.415Z,36.40
2018-10-09T13:29:05.605Z,37.10
2018-10-09T13:31:38.369Z,39.40
2018-10-09T13:34:10.436Z,39.40
2018-10-09T13:36:42.795Z,37.30
2018-10-09T13:39:14.668Z,37.70
2018-10-09T13:41:47.141Z,38.90
2018-10-09T13:44:19.161Z,37.70
2018-10-09T13:46:51.188Z,37.40
2018-10-09T13:49:23.586Z,37.30
2018-10-09T13:51:56.530Z,37.80
2018-10-09T13:54:29.074Z,38.50
2018-10-09T13:57:00.847Z,38.70
2018-10-09T13:59:32.817Z,38.60
2018-10-09T14:02:05.167Z,38.40
2018-10-09T14:04:37.277Z,38.00
2018-10-09T14:07:09.269Z,38.20
2018-10-09T14:09:41.299Z,38.10
2018-10-09T14:12:13.336Z,39.00
2018-10-09T14:14:45.326Z,39.50
2018-10-09T14:17:17.304Z,38.90
2018-10-09T14:19:49.227Z,38.50
2018-10-09T14:22:21.745Z,39.00
2018-10-09T14:24:53.832Z,39.40
2018-10-09T14:27:26.609Z,39.80
2018-10-09T14:29:59.666Z,40.30
2018-10-09T14:32:32.149Z,40.70
2018-10-09T14:35:04.421Z,40.60
2018-10-09T14:37:36.676Z,41.20
2018-10-09T14:40:09.024Z,41.40
2018-10-09T14:42:41.463Z,41.50
2018-10-09T14:45:13.452Z,41.30
2018-10-09T14:47:45.620Z,42.10
2018-10-09T14:50:17.780Z,42.40
2018-10-09T14:52:50.018Z,42.40
2018-10-09T14:55:22.377Z,43.50
2018-10-09T14:57:53.990Z,43.00
2018-10-09T15:00:25.903Z,43.10
2018-10-09T15:02:58.306Z,43.10
2018-10-09T15:05:30.262Z,43.40
2018-10-09T15:08:02.291Z,43.50
2018-10-09T15:10:34.312Z,43.90
2018-10-09T15:13:06.905Z,44.30
2018-10-09T15:15:39.081Z,44.40
2018-10-09T15:18:11.385Z,44.70
2018-10-09T15:20:43.458Z,45.00
2018-10-09T15:23:15.560Z,45.40
2018-10-09T15:25:47.517Z,45.50
2018-10-09T15:28:19.925Z,46.00
2018-10-09T15:30:52.322Z,46.70
2018-10-09T15:33:24.557Z,47.10
2018-10-09T15:35:56.934Z,47.60
2018-10-09T15:38:29.394Z,48.00
2018-10-09T15:41:01.610Z,48.30
2018-10-09T15:43:34.113Z,48.70
2018-10-09T15:46:06.447Z,48.90
2018-10-09T15:48:38.595Z,49.20
2018-10-09T15:51:10.755Z,49.50
2018-10-09T15:53:43.019Z,49.70
2018-10-09T15:56:16.138Z,50.00
2018-10-09T15:58:48.429Z,50.40
2018-10-09T16:01:20.824Z,50.70
2018-10-09T16:03:54.196Z,51.00
2018-10-09T16:06:27.136Z,51.40
2018-10-09T16:08:59.488Z,52.30
2018-10-09T16:11:32.050Z,52.00
2018-10-09T16:14:04.649Z,52.30
2018-10-09T16:16:37.227Z,52.60
2018-10-09T16:19:09.948Z,53.00
2018-10-09T16:21:42.438Z,53.30
2018-10-09T16:24:14.912Z,53.60
2018-10-09T16:26:47.163Z,53.90
2018-10-09T16:29:20.018Z,54.60
2018-10-09T16:31:52.054Z,55.10
2018-10-09T16:34:24.577Z,55.40
2018-10-09T16:36:56.797Z,55.70
2018-10-09T16:39:28.925Z,56.00
2018-10-09T16:42:01.059Z,56.30
2018-10-09T16:44:33.024Z,56.50
2018-10-09T16:47:05.664Z,56.70
2018-10-09T16:49:42.091Z,57.00
2018-10-09T16:52:14.201Z,57.30
2018-10-09T16:54:46.280Z,57.30
2018-10-09T16:57:18.140Z,57.50
2018-10-09T16:59:50.243Z,57.70
2018-10-09T17:02:23.509Z,57.90
2018-10-09T17:04:56.063Z,58.40
2018-10-09T17:07:28.087Z,58.80
2018-10-09T17:10:00.239Z,59.10
2018-10-09T17:12:33.742Z,59.50
2018-10-09T17:15:06.559Z,59.90
2018-10-09T17:17:38.616Z,60.10
2018-10-09T17:20:10.783Z,60.40
2018-10-09T17:22:43.255Z,60.90
2018-10-09T17:25:15.543Z,61.20
2018-10-09T17:27:47.931Z,61.40
2018-10-09T17:30:20.097Z,61.10
2018-10-09T17:32:52.175Z,61.10
2018-10-09T17:35:25.266Z,61.40
2018-10-09T17:37:57.619Z,61.80
2018-10-09T17:40:29.765Z,62.10
2018-10-09T17:43:02.416Z,62.40
2018-10-09T17:45:34.441Z,62.60
2018-10-09T17:48:06.210Z,62.60
2018-10-09T17:50:38.587Z,62.70
2018-10-09T17:53:10.943Z,63.00
2018-10-09T17:55:43.101Z,63.40
2018-10-09T17:58:16.637Z,63.70
2018-10-09T18:00:48.930Z,63.80
2018-10-09T18:03:21.236Z,64.10
2018-10-09T18:05:53.354Z,64.20
2018-10-09T18:08:25.353Z,64.70
2018-10-09T18:10:57.466Z,65.10
2018-10-09T18:13:29.694Z,65.50
2018-10-09T18:16:02.154Z,65.90
2018-10-09T18:18:34.175Z,66.00
2018-10-09T18:21:06.318Z,66.30
2018-10-09T18:23:37.959Z,66.60
2018-10-09T18:26:10.138Z,66.80
2018-10-09T18:28:43.038Z,66.90
2018-10-09T18:31:15.134Z,67.20
2018-10-09T18:33:48.309Z,67.50
2018-10-09T18:36:20.494Z,67.60
2018-10-09T18:38:52.679Z,67.90
2018-10-09T18:41:24.571Z,68.10
2018-10-09T18:43:56.990Z,68.20
2018-10-09T18:46:29.225Z,68.60
2018-10-09T18:49:02.293Z,68.70
2018-10-09T18:51:35.476Z,69.20
2018-10-09T18:54:08.492Z,69.50
2018-10-09T18:56:40.774Z,69.20
2018-10-09T18:59:13.129Z,69.60
2018-10-09T19:01:45.607Z,68.60
2018-10-09T19:04:17.928Z,71.70
2018-10-09T19:06:50.463Z,70.40
2018-10-09T19:09:22.936Z,69.90
2018-10-09T19:11:55.538Z,70.10
2018-10-09T19:14:27.655Z,69.40
2018-10-09T19:17:00.195Z,70.10
2018-10-09T19:19:32.583Z,69.50
2018-10-09T19:22:04.907Z,70.00
2018-10-09T19:24:37.431Z,70.20
2018-10-09T19:27:09.940Z,70.60
2018-10-09T19:29:42.292Z,70.50
2018-10-09T19:32:16.367Z,70.60
2018-10-09T19:34:48.716Z,70.80
2018-10-09T19:37:20.866Z,70.90
2018-10-09T19:39:53.078Z,71.20
2018-10-09T19:42:25.248Z,71.60
2018-10-09T19:44:57.385Z,71.90
2018-10-09T19:47:33.873Z,72.50
2018-10-09T19:50:06.660Z,72.80
2018-10-09T19:52:38.683Z,72.60
2018-10-09T19:55:11.690Z,72.20
2018-10-09T19:57:44.096Z,72.90
2018-10-09T20:00:16.584Z,73.20
2018-10-09T20:02:48.736Z,73.50
2018-10-09T20:05:20.777Z,73.60
2018-10-09T20:07:52.941Z,73.80
2018-10-09T20:10:25.258Z,74.30
2018-10-09T20:12:57.337Z,75.10
2018-10-09T20:15:29.304Z,76.00
2018-10-09T20:18:01.456Z,76.40
2018-10-09T20:20:33.761Z,77.10
2018-10-09T20:23:06.044Z,77.10
2018-10-09T20:25:38.124Z,77.10
2018-10-09T20:28:10.632Z,77.10
2018-10-09T20:30:42.794Z,76.80
2018-10-09T20:33:14.722Z,76.60
2018-10-09T20:35:46.833Z,76.90
2018-10-09T20:38:18.767Z,77.10
2018-10-09T20:40:50.861Z,77.30
2018-10-09T20:43:23.137Z,77.10
2018-10-09T20:45:56.110Z,77.10
2018-10-09T20:48:27.776Z,77.30
2018-10-09T20:50:59.776Z,77.30
2018-10-09T20:53:31.967Z,77.30
2018-10-09T20:56:04.349Z,77.30
2018-10-09T20:58:36.468Z,77.40
2018-10-09T21:01:08.876Z,77.30
2018-10-09T21:03:41.119Z,77.60
2018-10-09T21:06:13.259Z,77.70
2018-10-09T21:08:45.461Z,77.70
2018-10-09T21:11:17.841Z,78.10
2018-10-09T21:13:49.882Z,78.60
2018-10-09T21:16:22.125Z,78.70
2018-10-09T21:18:54.055Z,78.60
2018-10-09T21:21:26.309Z,78.50
2018-10-09T21:23:59.214Z,79.30
2018-10-09T21:26:31.350Z,79.20
2018-10-09T21:29:03.284Z,79.50
2018-10-09T21:31:35.324Z,79.30
2018-10-09T21:34:07.437Z,79.40
2018-10-09T21:36:39.452Z,79.90
2018-10-09T21:39:11.917Z,80.20
2018-10-09T21:41:44.610Z,80.20
2018-10-09T21:44:16.858Z,80.40
2018-10-09T21:46:49.567Z,80.30
2018-10-09T21:49:21.674Z,80.70
2018-10-09T21:51:53.827Z,81.50
2018-10-09T21:54:25.593Z,81.40
2018-10-09T21:56:57.714Z,81.20
2018-10-09T21:59:29.748Z,80.80
2018-10-09T22:02:01.844Z,80.60
2018-10-09T22:04:33.562Z,80.00
2018-10-09T22:07:06.076Z,80.20
2018-10-09T22:09:38.270Z,81.10
2018-10-09T22:12:10.298Z,81.10
2018-10-09T22:14:42.151Z,81.30
2018-10-09T22:17:14.155Z,81.60
2018-10-09T22:19:46.574Z,81.10
2018-10-09T22:22:18.570Z,80.20
2018-10-09T22:24:50.468Z,79.90
2018-10-09T22:27:22.836Z,80.20
2018-10-09T22:29:55.188Z,81.10
2018-10-09T22:32:27.315Z,81.30
2018-10-09T22:34:59.143Z,81.70
2018-10-09T22:37:31.206Z,81.90
2018-10-09T22:40:02.793Z,82.40
2018-10-09T22:42:35.094Z,82.40
2018-10-09T22:45:07.084Z,82.40
2018-10-09T22:47:40.012Z,82.70
2018-10-09T22:50:11.878Z,83.20
2018-10-09T22:52:43.625Z,83.20
2018-10-09T22:55:15.598Z,83.20
2018-10-09T22:57:47.244Z,83.00
2018-10-09T23:00:19.535Z,82.90
2018-10-09T23:02:51.633Z,82.20
2018-10-09T23:05:23.396Z,82.40
2018-10-09T23:07:55.015Z,82.80
2018-10-09T23:10:26.767Z,83.10
2018-10-09T23:12:59.759Z,83.20
2018-10-09T23:15:31.817Z,83.80
2018-10-09T23:18:03.953Z,83.10
2018-10-09T23:20:35.601Z,82.80
2018-10-09T23:23:07.923Z,82.90
2018-10-09T23:25:39.943Z,83.50
2018-10-09T23:28:12.072Z,82.20
2018-10-09T23:30:43.669Z,82.80
2018-10-09T23:33:15.518Z,83.30
2018-10-09T23:35:47.637Z,83.00
2018-10-09T23:38:19.689Z,82.70
2018-10-09T23:40:51.424Z,82.80
2018-10-09T23:43:23.519Z,83.10
2018-10-09T23:45:55.635Z,83.40
2018-10-09T23:48:27.267Z,84.00
2018-10-09T23:50:59.051Z,84.00
2018-10-09T23:53:31.062Z,83.90
2018-10-09T23:56:04.814Z,83.50
2018-10-09T23:58:36.892Z,83.50
